sensor_id;sensor_type;location;lat;lon;timestamp;temperature;humidity
41664;DHT22;27353;50.906;7.248;2023-01-04T00:01:41;6.40;99.90
41664;DHT22;27353;50.906;7.248;2023-01-04T00:04:07;6.40;99.90
41664;DHT22;27353;50.906;7.248;2023-01-04T00:06:33;6.40;99.90
41664;DHT22;27353;50.906;7.248;2023-01-04T00:08:58;6.50;99.90
41664;DHT22;27353;50.906;7.248;2023-01-04T00:11:24;6.50;99.90
41664;DHT22;27353;50.906;7.248;2023-01-04T00:13:51;6.60;99.90
41664;DHT22;27353;50.906;7.248;2023-01-04T00:16:23;6.70;99.90
41664;DHT22;27353;50.906;7.248;2023-01-04T00:18:50;6.70;99.90
41664;DHT22;27353;50.906;7.248;2023-01-04T00:21:24;6.80;99.90
41664;DHT22;27353;50.906;7.248;2023-01-04T00:23:52;6.80;99.90
41664;DHT22;27353;50.906;7.248;2023-01-04T00:26:21;6.80;99.90
41664;DHT22;27353;50.906;7.248;2023-01-04T00:28:52;6.80;99.90
41664;DHT22;27353;50.906;7.248;2023-01-04T00:31:17;6.80;99.90
41664;DHT22;27353;50.906;7.248;2023-01-04T00:33:43;6.90;99.90
41664;DHT22;27353;50.906;7.248;2023-01-04T00:36:11;7.00;99.90
41664;DHT22;27353;50.906;7.248;2023-01-04T00:38:38;7.00;99.90
41664;DHT22;27353;50.906;7.248;2023-01-04T00:41:05;7.00;99.90
41664;DHT22;27353;50.906;7.248;2023-01-04T00:43:31;7.00;99.90
41664;DHT22;27353;50.906;7.248;2023-01-04T00:45:57;7.00;99.90
41664;DHT22;27353;50.906;7.248;2023-01-04T00:48:23;7.00;99.90
41664;DHT22;27353;50.906;7.248;2023-01-04T00:50:49;7.10;99.90
41664;DHT22;27353;50.906;7.248;2023-01-04T00:53:15;7.10;99.90
41664;DHT22;27353;50.906;7.248;2023-01-04T00:55:41;7.10;99.90
41664;DHT22;27353;50.906;7.248;2023-01-04T00:58:07;7.10;99.90
41664;DHT22;27353;50.906;7.248;2023-01-04T01:00:33;7.10;99.90
41664;DHT22;27353;50.906;7.248;2023-01-04T01:02:59;7.10;99.90
41664;DHT22;27353;50.906;7.248;2023-01-04T01:05:25;7.10;99.90
41664;DHT22;27353;50.906;7.248;2023-01-04T01:07:50;7.10;99.90
41664;DHT22;27353;50.906;7.248;2023-01-04T01:10:16;7.20;99.90
41664;DHT22;27353;50.906;7.248;2023-01-04T01:12:42;7.20;99.90
41664;DHT22;27353;50.906;7.248;2023-01-04T01:15:08;7.20;99.90
41664;DHT22;27353;50.906;7.248;2023-01-04T01:17:34;7.20;99.90
41664;DHT22;27353;50.906;7.248;2023-01-04T01:20:00;7.30;99.90
41664;DHT22;27353;50.906;7.248;2023-01-04T01:22:26;7.20;99.90
41664;DHT22;27353;50.906;7.248;2023-01-04T01:24:51;7.20;99.90
41664;DHT22;27353;50.906;7.248;2023-01-04T01:27:17;7.20;99.90
41664;DHT22;27353;50.906;7.248;2023-01-04T01:29:43;7.20;99.90
41664;DHT22;27353;50.906;7.248;2023-01-04T01:32:08;7.30;99.90
41664;DHT22;27353;50.906;7.248;2023-01-04T01:34:34;7.20;99.90
41664;DHT22;27353;50.906;7.248;2023-01-04T01:36:59;7.30;99.90
41664;DHT22;27353;50.906;7.248;2023-01-04T01:39:27;7.30;99.90
41664;DHT22;27353;50.906;7.248;2023-01-04T01:41:52;7.30;99.90
41664;DHT22;27353;50.906;7.248;2023-01-04T01:47:13;7.30;99.90
41664;DHT22;27353;50.906;7.248;2023-01-04T01:49:41;7.30;99.90
41664;DHT22;27353;50.906;7.248;2023-01-04T01:52:11;7.40;99.90
41664;DHT22;27353;50.906;7.248;2023-01-04T01:54:46;7.30;99.90
41664;DHT22;27353;50.906;7.248;2023-01-04T01:57:17;7.40;99.90
41664;DHT22;27353;50.906;7.248;2023-01-04T01:59:45;7.30;99.90
41664;DHT22;27353;50.906;7.248;2023-01-04T02:02:12;7.30;99.90
41664;DHT22;27353;50.906;7.248;2023-01-04T02:04:39;7.30;99.90
41664;DHT22;27353;50.906;7.248;2023-01-04T02:07:07;7.30;99.90
41664;DHT22;27353;50.906;7.248;2023-01-04T02:09:34;7.30;99.90
41664;DHT22;27353;50.906;7.248;2023-01-04T02:12:00;7.30;99.90
41664;DHT22;27353;50.906;7.248;2023-01-04T02:14:26;7.20;99.90
41664;DHT22;27353;50.906;7.248;2023-01-04T02:17:13;7.20;99.90
41664;DHT22;27353;50.906;7.248;2023-01-04T02:33:50;7.20;99.90
41664;DHT22;27353;50.906;7.248;2023-01-04T02:41:51;7.20;99.90
41664;DHT22;27353;50.906;7.248;2023-01-04T02:44:27;7.20;99.90
41664;DHT22;27353;50.906;7.248;2023-01-04T02:47:16;7.20;99.90
41664;DHT22;27353;50.906;7.248;2023-01-04T02:49:42;7.20;99.90
41664;DHT22;27353;50.906;7.248;2023-01-04T02:52:27;7.20;99.90
41664;DHT22;27353;50.906;7.248;2023-01-04T02:54:54;7.30;99.90
41664;DHT22;27353;50.906;7.248;2023-01-04T03:03:08;7.30;99.90
41664;DHT22;27353;50.906;7.248;2023-01-04T03:11:14;7.30;99.90
41664;DHT22;27353;50.906;7.248;2023-01-04T03:14:16;7.30;99.90
41664;DHT22;27353;50.906;7.248;2023-01-04T03:16:44;7.30;99.90
41664;DHT22;27353;50.906;7.248;2023-01-04T03:19:13;7.40;99.90
41664;DHT22;27353;50.906;7.248;2023-01-04T03:21:42;7.40;99.90
41664;DHT22;27353;50.906;7.248;2023-01-04T03:24:09;7.40;99.90
41664;DHT22;27353;50.906;7.248;2023-01-04T03:26:58;7.40;99.90
41664;DHT22;27353;50.906;7.248;2023-01-04T03:30:00;7.40;99.90
41664;DHT22;27353;50.906;7.248;2023-01-04T03:32:58;7.40;99.90
41664;DHT22;27353;50.906;7.248;2023-01-04T03:35:48;7.50;99.90
41664;DHT22;27353;50.906;7.248;2023-01-04T03:38:37;7.50;99.90
41664;DHT22;27353;50.906;7.248;2023-01-04T03:41:29;7.50;99.90
41664;DHT22;27353;50.906;7.248;2023-01-04T03:44:46;7.50;99.90
41664;DHT22;27353;50.906;7.248;2023-01-04T03:50:35;7.50;99.90
41664;DHT22;27353;50.906;7.248;2023-01-04T03:53:05;7.50;99.90
41664;DHT22;27353;50.906;7.248;2023-01-04T03:55:33;7.60;99.90
41664;DHT22;27353;50.906;7.248;2023-01-04T03:57:59;7.60;99.90
41664;DHT22;27353;50.906;7.248;2023-01-04T04:00:25;7.60;99.90
41664;DHT22;27353;50.906;7.248;2023-01-04T04:02:51;7.60;99.90
41664;DHT22;27353;50.906;7.248;2023-01-04T04:05:20;7.60;99.90
41664;DHT22;27353;50.906;7.248;2023-01-04T04:08:05;7.70;99.90
41664;DHT22;27353;50.906;7.248;2023-01-04T04:10:50;7.70;99.90
41664;DHT22;27353;50.906;7.248;2023-01-04T04:13:16;7.70;99.90
41664;DHT22;27353;50.906;7.248;2023-01-04T04:15:41;7.80;99.90
41664;DHT22;27353;50.906;7.248;2023-01-04T04:18:07;7.90;99.90
41664;DHT22;27353;50.906;7.248;2023-01-04T04:20:32;8.00;99.90
41664;DHT22;27353;50.906;7.248;2023-01-04T04:22:58;8.00;99.90
41664;DHT22;27353;50.906;7.248;2023-01-04T04:25:24;8.00;99.90
41664;DHT22;27353;50.906;7.248;2023-01-04T04:27:49;8.00;99.90
41664;DHT22;27353;50.906;7.248;2023-01-04T04:30:15;8.10;99.90
41664;DHT22;27353;50.906;7.248;2023-01-04T04:32:40;8.10;99.90
41664;DHT22;27353;50.906;7.248;2023-01-04T04:35:06;8.20;99.90
41664;DHT22;27353;50.906;7.248;2023-01-04T04:37:32;8.20;99.90
41664;DHT22;27353;50.906;7.248;2023-01-04T04:39:59;8.10;99.90
41664;DHT22;27353;50.906;7.248;2023-01-04T04:42:25;8.20;99.90
41664;DHT22;27353;50.906;7.248;2023-01-04T04:44:50;8.20;99.90
41664;DHT22;27353;50.906;7.248;2023-01-04T04:47:16;8.10;99.90
41664;DHT22;27353;50.906;7.248;2023-01-04T04:49:42;8.20;99.90
41664;DHT22;27353;50.906;7.248;2023-01-04T04:52:07;8.10;99.90
41664;DHT22;27353;50.906;7.248;2023-01-04T04:54:33;8.20;99.90
41664;DHT22;27353;50.906;7.248;2023-01-04T04:56:58;8.10;99.90
41664;DHT22;27353;50.906;7.248;2023-01-04T04:59:24;8.10;99.90
41664;DHT22;27353;50.906;7.248;2023-01-04T05:01:50;8.10;99.90
41664;DHT22;27353;50.906;7.248;2023-01-04T05:04:16;8.10;99.90
41664;DHT22;27353;50.906;7.248;2023-01-04T05:06:44;8.10;99.90
41664;DHT22;27353;50.906;7.248;2023-01-04T05:09:11;8.20;99.90
41664;DHT22;27353;50.906;7.248;2023-01-04T05:11:36;8.20;99.90
41664;DHT22;27353;50.906;7.248;2023-01-04T05:14:20;8.10;99.90
41664;DHT22;27353;50.906;7.248;2023-01-04T05:16:46;8.20;99.90
41664;DHT22;27353;50.906;7.248;2023-01-04T05:19:11;8.20;99.90
41664;DHT22;27353;50.906;7.248;2023-01-04T05:21:37;8.20;99.90
41664;DHT22;27353;50.906;7.248;2023-01-04T05:24:03;8.20;99.90
41664;DHT22;27353;50.906;7.248;2023-01-04T05:26:29;8.10;99.90
41664;DHT22;27353;50.906;7.248;2023-01-04T05:28:54;8.10;99.90
41664;DHT22;27353;50.906;7.248;2023-01-04T05:31:20;8.10;99.90
41664;DHT22;27353;50.906;7.248;2023-01-04T05:33:46;8.10;99.90
41664;DHT22;27353;50.906;7.248;2023-01-04T05:36:11;8.20;99.90
41664;DHT22;27353;50.906;7.248;2023-01-04T05:38:37;8.20;99.90
41664;DHT22;27353;50.906;7.248;2023-01-04T05:41:02;8.20;99.90
41664;DHT22;27353;50.906;7.248;2023-01-04T05:43:28;8.30;99.90
41664;DHT22;27353;50.906;7.248;2023-01-04T05:45:55;8.30;99.90
41664;DHT22;27353;50.906;7.248;2023-01-04T05:48:22;8.30;99.90
41664;DHT22;27353;50.906;7.248;2023-01-04T05:50:49;8.30;99.90
41664;DHT22;27353;50.906;7.248;2023-01-04T05:53:15;8.30;99.90
41664;DHT22;27353;50.906;7.248;2023-01-04T05:55:43;8.40;99.90
41664;DHT22;27353;50.906;7.248;2023-01-04T05:58:09;8.40;99.90
41664;DHT22;27353;50.906;7.248;2023-01-04T06:00:34;8.40;99.90
41664;DHT22;27353;50.906;7.248;2023-01-04T06:03:00;8.40;99.90
41664;DHT22;27353;50.906;7.248;2023-01-04T06:05:26;8.40;99.90
41664;DHT22;27353;50.906;7.248;2023-01-04T06:07:52;8.50;99.90
41664;DHT22;27353;50.906;7.248;2023-01-04T06:10:17;8.50;99.90
41664;DHT22;27353;50.906;7.248;2023-01-04T06:12:45;8.60;99.90
41664;DHT22;27353;50.906;7.248;2023-01-04T06:15:11;8.60;99.90
41664;DHT22;27353;50.906;7.248;2023-01-04T06:17:38;8.60;99.90
41664;DHT22;27353;50.906;7.248;2023-01-04T06:20:06;8.60;99.90
41664;DHT22;27353;50.906;7.248;2023-01-04T06:22:33;8.60;99.90
41664;DHT22;27353;50.906;7.248;2023-01-04T06:24:59;8.60;99.90
41664;DHT22;27353;50.906;7.248;2023-01-04T06:27:24;8.60;99.90
41664;DHT22;27353;50.906;7.248;2023-01-04T06:29:50;8.60;99.90
41664;DHT22;27353;50.906;7.248;2023-01-04T06:32:16;8.60;99.90
41664;DHT22;27353;50.906;7.248;2023-01-04T06:34:41;8.70;99.90
41664;DHT22;27353;50.906;7.248;2023-01-04T06:37:07;8.70;99.90
41664;DHT22;27353;50.906;7.248;2023-01-04T06:39:34;8.60;99.90
41664;DHT22;27353;50.906;7.248;2023-01-04T06:42:00;8.60;99.90
41664;DHT22;27353;50.906;7.248;2023-01-04T06:44:25;8.70;99.90
41664;DHT22;27353;50.906;7.248;2023-01-04T06:46:51;8.70;99.90
41664;DHT22;27353;50.906;7.248;2023-01-04T06:49:16;8.70;99.90
41664;DHT22;27353;50.906;7.248;2023-01-04T06:51:42;8.70;99.90
41664;DHT22;27353;50.906;7.248;2023-01-04T06:54:09;8.80;99.90
41664;DHT22;27353;50.906;7.248;2023-01-04T06:56:36;8.80;99.90
41664;DHT22;27353;50.906;7.248;2023-01-04T06:59:01;8.80;99.90
41664;DHT22;27353;50.906;7.248;2023-01-04T07:01:27;8.90;99.90
41664;DHT22;27353;50.906;7.248;2023-01-04T07:03:53;8.90;99.90
41664;DHT22;27353;50.906;7.248;2023-01-04T07:06:18;8.90;99.90
41664;DHT22;27353;50.906;7.248;2023-01-04T07:08:44;8.90;99.90
41664;DHT22;27353;50.906;7.248;2023-01-04T07:11:09;9.00;99.90
41664;DHT22;27353;50.906;7.248;2023-01-04T07:13:35;9.00;99.90
41664;DHT22;27353;50.906;7.248;2023-01-04T07:16:01;8.90;99.90
41664;DHT22;27353;50.906;7.248;2023-01-04T07:18:26;9.00;99.90
41664;DHT22;27353;50.906;7.248;2023-01-04T07:20:52;9.00;99.90
41664;DHT22;27353;50.906;7.248;2023-01-04T07:23:17;9.00;99.90
41664;DHT22;27353;50.906;7.248;2023-01-04T07:25:43;9.00;99.90
41664;DHT22;27353;50.906;7.248;2023-01-04T07:28:08;9.00;99.90
41664;DHT22;27353;50.906;7.248;2023-01-04T07:30:34;9.00;99.90
41664;DHT22;27353;50.906;7.248;2023-01-04T07:33:00;9.00;99.90
41664;DHT22;27353;50.906;7.248;2023-01-04T07:35:26;9.00;99.90
41664;DHT22;27353;50.906;7.248;2023-01-04T07:37:51;9.00;99.90
41664;DHT22;27353;50.906;7.248;2023-01-04T07:40:17;9.00;99.90
41664;DHT22;27353;50.906;7.248;2023-01-04T07:42:43;9.10;99.90
41664;DHT22;27353;50.906;7.248;2023-01-04T07:45:09;9.00;99.90
41664;DHT22;27353;50.906;7.248;2023-01-04T07:47:34;9.10;99.90
41664;DHT22;27353;50.906;7.248;2023-01-04T07:50:00;9.10;99.90
41664;DHT22;27353;50.906;7.248;2023-01-04T07:52:26;9.10;99.90
41664;DHT22;27353;50.906;7.248;2023-01-04T07:54:52;9.10;99.90
41664;DHT22;27353;50.906;7.248;2023-01-04T07:57:18;9.10;99.90
41664;DHT22;27353;50.906;7.248;2023-01-04T07:59:43;9.10;99.90
41664;DHT22;27353;50.906;7.248;2023-01-04T08:02:12;9.10;99.90
41664;DHT22;27353;50.906;7.248;2023-01-04T08:04:38;9.10;99.90
41664;DHT22;27353;50.906;7.248;2023-01-04T08:07:03;9.20;99.90
41664;DHT22;27353;50.906;7.248;2023-01-04T08:09:29;9.10;99.90
41664;DHT22;27353;50.906;7.248;2023-01-04T08:11:55;9.10;99.90
41664;DHT22;27353;50.906;7.248;2023-01-04T08:14:20;9.20;99.90
41664;DHT22;27353;50.906;7.248;2023-01-04T08:16:47;9.20;99.90
41664;DHT22;27353;50.906;7.248;2023-01-04T08:19:15;9.30;99.90
41664;DHT22;27353;50.906;7.248;2023-01-04T08:21:41;9.20;99.90
41664;DHT22;27353;50.906;7.248;2023-01-04T08:24:12;9.20;99.90
41664;DHT22;27353;50.906;7.248;2023-01-04T08:26:38;9.30;99.90
41664;DHT22;27353;50.906;7.248;2023-01-04T08:29:03;9.30;99.90
41664;DHT22;27353;50.906;7.248;2023-01-04T08:31:30;9.30;99.90
41664;DHT22;27353;50.906;7.248;2023-01-04T08:33:58;9.30;99.90
41664;DHT22;27353;50.906;7.248;2023-01-04T08:36:28;9.40;99.90
41664;DHT22;27353;50.906;7.248;2023-01-04T08:38:56;9.40;99.90
41664;DHT22;27353;50.906;7.248;2023-01-04T08:41:22;9.40;99.90
41664;DHT22;27353;50.906;7.248;2023-01-04T08:43:47;9.40;99.90
41664;DHT22;27353;50.906;7.248;2023-01-04T08:46:14;9.40;99.90
41664;DHT22;27353;50.906;7.248;2023-01-04T08:48:40;9.40;99.90
41664;DHT22;27353;50.906;7.248;2023-01-04T08:51:11;9.40;99.90
41664;DHT22;27353;50.906;7.248;2023-01-04T08:53:37;9.40;99.90
41664;DHT22;27353;50.906;7.248;2023-01-04T08:56:03;9.40;99.90
41664;DHT22;27353;50.906;7.248;2023-01-04T08:58:30;9.40;99.90
41664;DHT22;27353;50.906;7.248;2023-01-04T09:01:00;9.40;99.90
41664;DHT22;27353;50.906;7.248;2023-01-04T09:03:27;9.40;99.90
41664;DHT22;27353;50.906;7.248;2023-01-04T09:05:53;9.40;99.90
41664;DHT22;27353;50.906;7.248;2023-01-04T09:08:18;9.50;99.90
41664;DHT22;27353;50.906;7.248;2023-01-04T09:10:44;9.50;99.90
41664;DHT22;27353;50.906;7.248;2023-01-04T09:13:09;9.40;99.90
41664;DHT22;27353;50.906;7.248;2023-01-04T09:15:35;9.50;99.90
41664;DHT22;27353;50.906;7.248;2023-01-04T09:18:01;9.50;99.90
41664;DHT22;27353;50.906;7.248;2023-01-04T09:20:27;9.50;99.90
41664;DHT22;27353;50.906;7.248;2023-01-04T09:22:55;9.50;99.90
41664;DHT22;27353;50.906;7.248;2023-01-04T09:25:20;9.50;99.90
41664;DHT22;27353;50.906;7.248;2023-01-04T09:27:46;9.50;99.90
41664;DHT22;27353;50.906;7.248;2023-01-04T09:30:12;9.50;99.90
41664;DHT22;27353;50.906;7.248;2023-01-04T09:32:37;9.60;99.90
41664;DHT22;27353;50.906;7.248;2023-01-04T09:35:03;9.60;99.90
41664;DHT22;27353;50.906;7.248;2023-01-04T09:37:29;9.70;99.90
41664;DHT22;27353;50.906;7.248;2023-01-04T09:39:54;9.60;99.90
41664;DHT22;27353;50.906;7.248;2023-01-04T09:44:54;9.80;99.90
41664;DHT22;27353;50.906;7.248;2023-01-04T09:47:42;9.80;99.90
41664;DHT22;27353;50.906;7.248;2023-01-04T09:50:20;9.80;99.90
41664;DHT22;27353;50.906;7.248;2023-01-04T09:53:20;9.80;99.90
41664;DHT22;27353;50.906;7.248;2023-01-04T09:55:52;9.90;99.90
41664;DHT22;27353;50.906;7.248;2023-01-04T09:58:33;10.00;99.90
41664;DHT22;27353;50.906;7.248;2023-01-04T10:01:07;10.00;99.90
41664;DHT22;27353;50.906;7.248;2023-01-04T10:03:39;10.10;99.90
41664;DHT22;27353;50.906;7.248;2023-01-04T10:06:06;10.10;99.90
41664;DHT22;27353;50.906;7.248;2023-01-04T10:08:34;10.20;99.90
41664;DHT22;27353;50.906;7.248;2023-01-04T10:22:27;10.60;99.90
41664;DHT22;27353;50.906;7.248;2023-01-04T10:30:35;10.80;99.90
41664;DHT22;27353;50.906;7.248;2023-01-04T10:35:48;10.80;99.90
41664;DHT22;27353;50.906;7.248;2023-01-04T10:38:34;10.90;99.90
41664;DHT22;27353;50.906;7.248;2023-01-04T10:41:07;10.90;99.90
41664;DHT22;27353;50.906;7.248;2023-01-04T10:44:15;10.90;99.90
41664;DHT22;27353;50.906;7.248;2023-01-04T10:49:10;10.90;99.90
41664;DHT22;27353;50.906;7.248;2023-01-04T10:51:46;10.90;99.90
41664;DHT22;27353;50.906;7.248;2023-01-04T10:54:34;10.80;99.90
41664;DHT22;27353;50.906;7.248;2023-01-04T10:59:38;10.80;99.90
41664;DHT22;27353;50.906;7.248;2023-01-04T11:04:59;10.80;99.90
41664;DHT22;27353;50.906;7.248;2023-01-04T11:07:55;10.80;99.90
41664;DHT22;27353;50.906;7.248;2023-01-04T11:10:26;10.70;99.90
41664;DHT22;27353;50.906;7.248;2023-01-04T11:12:53;10.70;99.90
41664;DHT22;27353;50.906;7.248;2023-01-04T11:15:19;10.70;99.90
41664;DHT22;27353;50.906;7.248;2023-01-04T11:17:44;10.60;99.90
41664;DHT22;27353;50.906;7.248;2023-01-04T11:20:11;10.60;99.90
41664;DHT22;27353;50.906;7.248;2023-01-04T11:22:41;10.50;99.90
41664;DHT22;27353;50.906;7.248;2023-01-04T11:25:19;10.50;99.90
41664;DHT22;27353;50.906;7.248;2023-01-04T11:28:00;10.50;99.90
41664;DHT22;27353;50.906;7.248;2023-01-04T11:33:24;10.40;99.90
41664;DHT22;27353;50.906;7.248;2023-01-04T11:35:51;10.40;99.90
41664;DHT22;27353;50.906;7.248;2023-01-04T11:43:23;10.40;99.90
41664;DHT22;27353;50.906;7.248;2023-01-04T11:46:03;10.40;99.90
41664;DHT22;27353;50.906;7.248;2023-01-04T11:50:56;10.50;99.90
41664;DHT22;27353;50.906;7.248;2023-01-04T11:53:30;10.50;99.90
41664;DHT22;27353;50.906;7.248;2023-01-04T11:58:40;10.60;99.90
41664;DHT22;27353;50.906;7.248;2023-01-04T12:01:19;10.60;99.90
41664;DHT22;27353;50.906;7.248;2023-01-04T12:03:45;10.60;99.90
41664;DHT22;27353;50.906;7.248;2023-01-04T12:06:24;10.70;99.90
41664;DHT22;27353;50.906;7.248;2023-01-04T12:08:54;10.70;99.90
41664;DHT22;27353;50.906;7.248;2023-01-04T12:11:41;10.80;99.90
41664;DHT22;27353;50.906;7.248;2023-01-04T12:16:44;10.80;99.90
41664;DHT22;27353;50.906;7.248;2023-01-04T12:19:16;10.90;99.90
41664;DHT22;27353;50.906;7.248;2023-01-04T12:21:48;10.90;99.90
41664;DHT22;27353;50.906;7.248;2023-01-04T12:24:21;11.00;99.90
41664;DHT22;27353;50.906;7.248;2023-01-04T12:26:48;11.00;99.90
41664;DHT22;27353;50.906;7.248;2023-01-04T12:31:52;11.00;99.90
41664;DHT22;27353;50.906;7.248;2023-01-04T12:47:02;11.00;99.90
41664;DHT22;27353;50.906;7.248;2023-01-04T12:49:58;11.10;99.90
41664;DHT22;27353;50.906;7.248;2023-01-04T13:02:27;11.00;99.90
41664;DHT22;27353;50.906;7.248;2023-01-04T13:04:55;11.00;99.90
41664;DHT22;27353;50.906;7.248;2023-01-04T13:07:26;11.00;99.90
41664;DHT22;27353;50.906;7.248;2023-01-04T13:10:16;11.10;99.90
41664;DHT22;27353;50.906;7.248;2023-01-04T13:18:41;11.10;99.90
41664;DHT22;27353;50.906;7.248;2023-01-04T13:21:35;11.10;99.90
41664;DHT22;27353;50.906;7.248;2023-01-04T13:24:50;11.20;99.90
41664;DHT22;27353;50.906;7.248;2023-01-04T13:26:52;11.20;99.90
41664;DHT22;27353;50.906;7.248;2023-01-04T13:29:22;11.20;99.90
41664;DHT22;27353;50.906;7.248;2023-01-04T13:34:30;11.20;99.90
41664;DHT22;27353;50.906;7.248;2023-01-04T13:42:30;11.30;99.90
41664;DHT22;27353;50.906;7.248;2023-01-04T13:47:49;11.30;99.90
41664;DHT22;27353;50.906;7.248;2023-01-04T13:52:54;11.30;99.90
41664;DHT22;27353;50.906;7.248;2023-01-04T13:55:29;11.30;99.90
41664;DHT22;27353;50.906;7.248;2023-01-04T13:57:57;11.20;99.90
41664;DHT22;27353;50.906;7.248;2023-01-04T14:00:26;11.20;99.90
41664;DHT22;27353;50.906;7.248;2023-01-04T14:03:10;11.20;99.90
41664;DHT22;27353;50.906;7.248;2023-01-04T14:05:44;11.10;99.90
41664;DHT22;27353;50.906;7.248;2023-01-04T14:08:11;11.20;99.90
41664;DHT22;27353;50.906;7.248;2023-01-04T14:10:42;11.20;99.90
41664;DHT22;27353;50.906;7.248;2023-01-04T14:13:13;11.10;99.90
41664;DHT22;27353;50.906;7.248;2023-01-04T14:15:40;11.20;99.90
41664;DHT22;27353;50.906;7.248;2023-01-04T14:18:27;11.20;99.90
41664;DHT22;27353;50.906;7.248;2023-01-04T14:20:53;11.20;99.90
41664;DHT22;27353;50.906;7.248;2023-01-04T14:23:27;11.20;99.90
41664;DHT22;27353;50.906;7.248;2023-01-04T14:25:53;11.30;99.90
41664;DHT22;27353;50.906;7.248;2023-01-04T14:30:51;11.40;99.90
41664;DHT22;27353;50.906;7.248;2023-01-04T14:33:17;11.40;99.90
41664;DHT22;27353;50.906;7.248;2023-01-04T14:35:43;11.40;99.90
41664;DHT22;27353;50.906;7.248;2023-01-04T14:38:13;11.50;99.90
41664;DHT22;27353;50.906;7.248;2023-01-04T14:40:40;11.50;99.90
41664;DHT22;27353;50.906;7.248;2023-01-04T14:45:56;11.50;99.90
41664;DHT22;27353;50.906;7.248;2023-01-04T14:48:21;11.50;99.90
41664;DHT22;27353;50.906;7.248;2023-01-04T14:50:47;11.50;99.90
41664;DHT22;27353;50.906;7.248;2023-01-04T14:53:12;11.60;99.90
41664;DHT22;27353;50.906;7.248;2023-01-04T14:55:38;11.60;99.90
41664;DHT22;27353;50.906;7.248;2023-01-04T14:58:04;11.70;99.90
41664;DHT22;27353;50.906;7.248;2023-01-04T15:00:30;11.70;99.90
41664;DHT22;27353;50.906;7.248;2023-01-04T15:02:55;11.80;99.90
41664;DHT22;27353;50.906;7.248;2023-01-04T15:05:21;11.80;99.90
41664;DHT22;27353;50.906;7.248;2023-01-04T15:07:47;11.80;99.90
41664;DHT22;27353;50.906;7.248;2023-01-04T15:10:22;11.80;99.90
41664;DHT22;27353;50.906;7.248;2023-01-04T15:12:48;11.80;99.90
41664;DHT22;27353;50.906;7.248;2023-01-04T15:15:14;11.80;99.90
41664;DHT22;27353;50.906;7.248;2023-01-04T15:17:40;11.80;99.90
41664;DHT22;27353;50.906;7.248;2023-01-04T15:20:06;11.80;99.90
41664;DHT22;27353;50.906;7.248;2023-01-04T15:22:32;11.80;99.90
41664;DHT22;27353;50.906;7.248;2023-01-04T15:24:57;11.80;99.90
41664;DHT22;27353;50.906;7.248;2023-01-04T15:27:23;11.80;99.90
41664;DHT22;27353;50.906;7.248;2023-01-04T15:29:48;11.70;99.90
41664;DHT22;27353;50.906;7.248;2023-01-04T15:32:14;11.70;99.90
41664;DHT22;27353;50.906;7.248;2023-01-04T15:34:39;11.60;99.90
41664;DHT22;27353;50.906;7.248;2023-01-04T15:37:05;11.60;99.90
41664;DHT22;27353;50.906;7.248;2023-01-04T15:39:31;11.50;99.90
41664;DHT22;27353;50.906;7.248;2023-01-04T15:41:56;11.50;99.90
41664;DHT22;27353;50.906;7.248;2023-01-04T15:44:42;11.50;99.90
41664;DHT22;27353;50.906;7.248;2023-01-04T15:47:07;11.50;99.90
41664;DHT22;27353;50.906;7.248;2023-01-04T15:49:33;11.40;99.90
41664;DHT22;27353;50.906;7.248;2023-01-04T15:51:58;11.40;99.90
41664;DHT22;27353;50.906;7.248;2023-01-04T15:54:25;11.30;99.90
41664;DHT22;27353;50.906;7.248;2023-01-04T15:56:51;11.30;99.90
41664;DHT22;27353;50.906;7.248;2023-01-04T15:59:17;11.30;99.90
41664;DHT22;27353;50.906;7.248;2023-01-04T16:01:43;11.20;99.90
41664;DHT22;27353;50.906;7.248;2023-01-04T16:04:08;11.20;99.90
41664;DHT22;27353;50.906;7.248;2023-01-04T16:06:36;11.10;99.90
41664;DHT22;27353;50.906;7.248;2023-01-04T16:09:02;11.10;99.90
41664;DHT22;27353;50.906;7.248;2023-01-04T16:11:28;11.10;99.90
41664;DHT22;27353;50.906;7.248;2023-01-04T16:13:54;11.10;99.90
41664;DHT22;27353;50.906;7.248;2023-01-04T16:16:21;11.10;99.90
41664;DHT22;27353;50.906;7.248;2023-01-04T16:18:52;11.00;99.90
41664;DHT22;27353;50.906;7.248;2023-01-04T16:21:26;11.00;99.90
41664;DHT22;27353;50.906;7.248;2023-01-04T16:23:55;11.00;99.90
41664;DHT22;27353;50.906;7.248;2023-01-04T16:26:21;11.00;99.90
41664;DHT22;27353;50.906;7.248;2023-01-04T16:28:52;11.00;99.90
41664;DHT22;27353;50.906;7.248;2023-01-04T16:31:19;11.00;99.90
41664;DHT22;27353;50.906;7.248;2023-01-04T16:33:45;11.00;99.90
41664;DHT22;27353;50.906;7.248;2023-01-04T16:36:13;10.90;99.90
41664;DHT22;27353;50.906;7.248;2023-01-04T16:38:41;11.00;99.90
41664;DHT22;27353;50.906;7.248;2023-01-04T16:41:09;11.00;99.90
41664;DHT22;27353;50.906;7.248;2023-01-04T16:43:42;11.00;99.90
41664;DHT22;27353;50.906;7.248;2023-01-04T16:48:48;11.00;99.90
41664;DHT22;27353;50.906;7.248;2023-01-04T16:51:14;11.00;99.90
41664;DHT22;27353;50.906;7.248;2023-01-04T16:53:40;11.00;99.90
41664;DHT22;27353;50.906;7.248;2023-01-04T16:56:08;11.00;99.90
41664;DHT22;27353;50.906;7.248;2023-01-04T16:58:35;11.00;99.90
41664;DHT22;27353;50.906;7.248;2023-01-04T17:01:23;11.00;99.90
41664;DHT22;27353;50.906;7.248;2023-01-04T17:03:50;11.00;99.90
41664;DHT22;27353;50.906;7.248;2023-01-04T17:06:23;11.00;99.90
41664;DHT22;27353;50.906;7.248;2023-01-04T17:08:51;11.00;99.90
41664;DHT22;27353;50.906;7.248;2023-01-04T17:11:19;11.00;99.90
41664;DHT22;27353;50.906;7.248;2023-01-04T17:13:45;11.00;99.90
41664;DHT22;27353;50.906;7.248;2023-01-04T17:16:11;11.00;99.90
41664;DHT22;27353;50.906;7.248;2023-01-04T17:18:37;11.00;99.90
41664;DHT22;27353;50.906;7.248;2023-01-04T17:21:05;11.00;99.90
41664;DHT22;27353;50.906;7.248;2023-01-04T17:23:38;11.00;99.90
41664;DHT22;27353;50.906;7.248;2023-01-04T17:26:07;11.10;99.90
41664;DHT22;27353;50.906;7.248;2023-01-04T17:28:33;11.20;99.90
41664;DHT22;27353;50.906;7.248;2023-01-04T17:31:03;11.10;99.90
41664;DHT22;27353;50.906;7.248;2023-01-04T17:33:29;11.00;99.90
41664;DHT22;27353;50.906;7.248;2023-01-04T17:35:54;10.90;99.90
41664;DHT22;27353;50.906;7.248;2023-01-04T17:38:22;10.90;99.90
41664;DHT22;27353;50.906;7.248;2023-01-04T17:40:47;10.90;99.90
41664;DHT22;27353;50.906;7.248;2023-01-04T17:43:13;10.90;99.90
41664;DHT22;27353;50.906;7.248;2023-01-04T17:45:38;11.00;99.90
41664;DHT22;27353;50.906;7.248;2023-01-04T17:48:04;11.10;99.90
41664;DHT22;27353;50.906;7.248;2023-01-04T17:50:31;11.10;99.90
41664;DHT22;27353;50.906;7.248;2023-01-04T17:52:56;11.10;99.90
41664;DHT22;27353;50.906;7.248;2023-01-04T17:55:23;11.20;99.90
41664;DHT22;27353;50.906;7.248;2023-01-04T17:57:49;11.20;99.90
41664;DHT22;27353;50.906;7.248;2023-01-04T18:00:14;11.10;99.90
41664;DHT22;27353;50.906;7.248;2023-01-04T18:02:41;11.10;99.90
41664;DHT22;27353;50.906;7.248;2023-01-04T18:05:08;11.10;99.90
41664;DHT22;27353;50.906;7.248;2023-01-04T18:07:34;11.30;99.90